Time;durP1;ratioP1;P1;durP2;ratioP2;P2;SDS_P1;SDS_P2;PMS_P1;PMS_P2;Temp;Humidity;BMP_temperature;BMP_pressure;BME280_temperature;BME280_humidity;BME280_pressure;Samples;Min_cycle;Max_cycle;Signal;HPM_P1;HPM_P2
2021/01/10 00:01:55;;;;;;;14.33;10.00;;;;;;;2.84;69.31;96816.41;5110923;28;20261;-62
2021/01/10 00:04:20;;;;;;;13.67;9.50;;;;;;;2.81;69.00;96813.28;5110812;28;20183;-60
2021/01/10 00:06:47;;;;;;;13.63;9.47;;;;;;;2.84;68.59;96821.59;5110417;28;20199;-59
2021/01/10 00:09:12;;;;;;;11.47;9.17;;;;;;;2.84;69.48;96813.81;5108942;28;20265;-57
2021/01/10 00:11:42;;;;;;;13.20;9.70;;;;;;;2.90;68.64;96817.50;5110274;28;20530;-58
2021/01/10 00:14:08;;;;;;;12.60;9.00;;;;;;;2.87;68.75;96810.06;5092914;28;20202;-57
2021/01/10 00:16:38;;;;;;;10.97;8.50;;;;;;;2.93;68.68;96814.59;5089928;28;20454;-58
2021/01/10 00:19:03;;;;;;;11.80;8.50;;;;;;;2.95;68.77;96810.03;5088945;28;20171;-57
2021/01/10 00:21:38;;;;;;;11.20;8.70;;;;;;;2.90;68.68;96810.53;5090092;28;20437;-58
2021/01/10 00:24:05;;;;;;;12.50;9.23;;;;;;;2.92;68.50;96807.75;5089943;28;20182;-57
2021/01/10 00:26:33;;;;;;;10.07;8.50;;;;;;;2.90;68.78;96809.72;5090472;28;20457;-56
2021/01/10 00:28:59;;;;;;;12.13;9.70;;;;;;;2.91;68.32;96806.97;5096928;28;20429;-57
2021/01/10 00:31:29;;;;;;;14.97;9.67;;;;;;;2.96;67.90;96803.84;5089843;28;21010;-56
2021/01/10 00:33:55;;;;;;;11.73;9.43;;;;;;;2.91;68.13;96798.38;5090109;28;20251;-57
2021/01/10 00:36:20;;;;;;;13.93;9.40;;;;;;;2.85;67.87;96812.81;5090415;28;20549;-57
2021/01/10 00:38:45;;;;;;;11.47;8.90;;;;;;;2.77;67.99;96807.63;5090062;28;20251;-57
2021/01/10 00:41:11;;;;;;;11.80;9.27;;;;;;;2.70;68.33;96813.69;5089701;28;20197;-57
2021/01/10 00:43:36;;;;;;;11.27;8.47;;;;;;;2.49;69.02;96809.00;5090866;28;20187;-57
2021/01/10 00:46:02;;;;;;;10.60;8.80;;;;;;;2.56;68.52;96804.78;5089800;28;20181;-57
2021/01/10 00:48:27;;;;;;;11.67;9.43;;;;;;;2.62;68.57;96805.91;5099379;28;20203;-58
2021/01/10 00:50:52;;;;;;;12.00;9.13;;;;;;;2.63;69.18;96813.50;5108212;28;20206;-57
2021/01/10 00:53:18;;;;;;;11.07;8.80;;;;;;;2.61;69.16;96812.88;5109974;28;20211;-56
2021/01/10 00:55:43;;;;;;;12.83;9.17;;;;;;;2.70;68.77;96824.06;5110095;28;20170;-57
2021/01/10 00:58:08;;;;;;;11.70;9.23;;;;;;;2.71;69.00;96821.28;5109669;28;20641;-57
2021/01/10 01:00:34;;;;;;;12.00;9.50;;;;;;;2.75;69.17;96824.34;5108974;28;20698;-57
2021/01/10 01:02:59;;;;;;;13.50;10.37;;;;;;;2.75;69.13;96816.56;5108189;28;20175;-57
2021/01/10 01:05:24;;;;;;;15.40;9.90;;;;;;;2.79;69.11;96826.44;5098806;28;20199;-57
2021/01/10 01:07:50;;;;;;;15.63;10.40;;;;;;;2.74;69.53;96830.50;5100717;28;20184;-57
2021/01/10 01:10:15;;;;;;;13.47;9.90;;;;;;;2.80;68.92;96827.25;5113601;28;20728;-57
2021/01/10 01:12:40;;;;;;;14.40;9.63;;;;;;;2.86;68.81;96834.38;5111294;28;20210;-57
2021/01/10 01:15:07;;;;;;;11.37;9.60;;;;;;;2.82;68.88;96835.69;5094728;28;20187;-57
2021/01/10 01:17:32;;;;;;;13.47;10.03;;;;;;;2.78;68.72;96832.63;5105743;28;20205;-57
2021/01/10 01:19:57;;;;;;;13.37;9.23;;;;;;;2.74;68.92;96828.72;5095240;28;20499;-58
2021/01/10 01:22:26;;;;;;;12.07;9.33;;;;;;;2.70;69.37;96826.66;5105691;28;20174;-57
2021/01/10 01:24:51;;;;;;;15.17;10.40;;;;;;;2.75;69.72;96835.56;5092883;28;20170;-57
2021/01/10 01:27:17;;;;;;;13.60;9.77;;;;;;;2.74;69.78;96839.09;5097841;28;20948;-57
2021/01/10 01:29:42;;;;;;;14.80;10.90;;;;;;;2.71;69.86;96841.22;5113069;28;20587;-57
2021/01/10 01:32:07;;;;;;;14.53;11.37;;;;;;;2.70;70.33;96834.44;5109467;28;20195;-58
2021/01/10 01:34:33;;;;;;;18.37;12.13;;;;;;;2.73;69.89;96836.69;5096866;28;20201;-57
2021/01/10 01:36:58;;;;;;;16.57;11.77;;;;;;;2.73;70.16;96837.50;5096095;28;20228;-56
2021/01/10 01:39:24;;;;;;;16.07;12.47;;;;;;;2.73;70.42;96844.47;5096567;28;20665;-59
2021/01/10 01:41:49;;;;;;;17.57;12.27;;;;;;;2.81;70.53;96844.44;5097811;28;20209;-58
2021/01/10 01:44:14;;;;;;;16.63;12.33;;;;;;;2.78;70.04;96843.00;5097330;28;20264;-56
2021/01/10 01:46:40;;;;;;;15.87;11.40;;;;;;;2.73;70.15;96840.09;5111065;28;20269;-57
2021/01/10 01:49:08;;;;;;;15.30;11.50;;;;;;;2.52;71.00;96851.97;5105920;28;20188;-58
2021/01/10 01:51:35;;;;;;;15.17;11.40;;;;;;;2.65;70.54;96847.88;5104677;28;20204;-58
2021/01/10 01:54:01;;;;;;;14.30;11.57;;;;;;;2.65;70.68;96858.25;5105542;28;20411;-58
2021/01/10 01:56:27;;;;;;;15.17;11.40;;;;;;;2.66;70.55;96857.28;5116375;28;20893;-56
2021/01/10 01:59:03;;;;;;;18.30;12.83;;;;;;;2.67;70.81;96868.44;5105082;28;20425;-58
2021/01/10 02:01:30;;;;;;;13.40;10.80;;;;;;;2.69;70.94;96867.31;5107325;28;20203;-58
2021/01/10 02:04:04;;;;;;;17.43;11.40;;;;;;;2.70;70.57;96870.75;5116484;28;20879;-57
2021/01/10 02:06:38;;;;;;;16.63;11.20;;;;;;;2.60;70.60;96860.53;5099921;28;20425;-57
2021/01/10 02:09:06;;;;;;;16.53;11.70;;;;;;;2.64;70.84;96868.78;5096142;28;20415;-57
2021/01/10 02:11:33;;;;;;;11.83;9.50;;;;;;;2.74;69.96;96853.84;5104048;28;20549;-56
2021/01/10 02:14:05;;;;;;;15.00;11.17;;;;;;;2.71;70.71;96865.38;5095819;28;20428;-57
2021/01/10 02:16:32;;;;;;;15.83;11.73;;;;;;;2.70;70.66;96853.38;5107763;28;20422;-58
2021/01/10 02:18:58;;;;;;;13.40;11.60;;;;;;;2.76;70.62;96846.72;5114971;28;20414;-57
2021/01/10 02:21:27;;;;;;;14.63;11.07;;;;;;;2.62;71.09;96844.81;5115430;28;20524;-57
2021/01/10 02:23:54;;;;;;;16.73;12.70;;;;;;;2.62;70.55;96842.22;5096741;28;20452;-58
2021/01/10 02:26:19;;;;;;;16.23;12.30;;;;;;;2.67;70.71;96847.69;5095553;28;20411;-57
2021/01/10 02:28:45;;;;;;;21.20;13.33;;;;;;;2.66;70.75;96844.31;5097133;28;20446;-57
2021/01/10 02:31:13;;;;;;;17.67;12.30;;;;;;;2.64;71.03;96854.03;5106874;28;20245;-57
2021/01/10 02:33:47;;;;;;;17.40;13.00;;;;;;;2.67;70.41;96842.50;5096172;28;20178;-57
2021/01/10 02:36:37;;;;;;;17.60;13.20;;;;;;;2.68;70.30;96851.94;5105163;28;20431;-56
2021/01/10 02:39:28;;;;;;;17.20;13.40;;;;;;;2.67;70.22;96847.69;5116023;28;20792;-57
2021/01/10 02:42:17;;;;;;;16.77;12.80;;;;;;;2.65;70.21;96847.88;5109356;28;20423;-56
2021/01/10 02:44:49;;;;;;;17.30;11.50;;;;;;;2.63;70.27;96836.84;5106813;28;20504;-56
2021/01/10 02:47:15;;;;;;;17.93;13.23;;;;;;;2.58;70.38;96844.31;5099256;28;20415;-57
2021/01/10 02:49:40;;;;;;;16.73;12.40;;;;;;;2.50;70.88;96844.31;5111227;28;20925;-57
2021/01/10 02:52:06;;;;;;;15.97;12.90;;;;;;;2.57;70.38;96839.31;5113505;28;20195;-57
2021/01/10 02:54:31;;;;;;;14.13;11.70;;;;;;;2.52;70.48;96837.19;5095328;28;20180;-56
2021/01/10 02:57:15;;;;;;;15.47;12.50;;;;;;;2.42;70.82;96835.75;5103567;28;20230;-57
2021/01/10 02:59:43;;;;;;;16.67;12.77;;;;;;;2.49;70.50;96836.72;5107051;28;20187;-56
2021/01/10 03:02:10;;;;;;;17.23;13.37;;;;;;;2.47;71.04;96833.47;5110152;28;20782;-57
2021/01/10 03:04:37;;;;;;;16.70;12.23;;;;;;;2.51;71.23;96832.16;5116099;28;20395;-58
2021/01/10 03:07:07;;;;;;;17.73;12.87;;;;;;;2.42;71.01;96826.19;5115431;28;20408;-57
2021/01/10 03:09:33;;;;;;;19.37;13.70;;;;;;;2.46;71.07;96824.91;5114442;28;20438;-58
2021/01/10 03:12:26;;;;;;;16.90;12.70;;;;;;;2.40;71.08;96825.53;5102016;28;20448;-58
2021/01/10 03:15:00;;;;;;;17.40;12.50;;;;;;;2.43;71.13;96824.41;5112799;28;20427;-58
2021/01/10 03:17:46;;;;;;;21.60;14.37;;;;;;;2.35;71.34;96827.81;5095825;28;20516;-56
2021/01/10 03:20:16;;;;;;;15.73;12.27;;;;;;;2.28;71.43;96826.03;5095966;28;20437;-57
2021/01/10 03:22:44;;;;;;;14.87;12.37;;;;;;;2.29;71.38;96823.28;5108212;28;20792;-57
2021/01/10 03:25:12;;;;;;;17.33;12.53;;;;;;;2.28;71.15;96816.50;5094721;28;20898;-57
2021/01/10 03:27:38;;;;;;;15.90;11.93;;;;;;;2.34;71.39;96808.03;5095423;28;20420;-57
2021/01/10 03:30:09;;;;;;;16.50;13.27;;;;;;;2.21;71.62;96810.31;5100875;28;20511;-58
2021/01/10 03:32:34;;;;;;;17.13;13.00;;;;;;;2.24;70.71;96807.41;5114109;28;20451;-56
2021/01/10 03:35:00;;;;;;;18.10;12.73;;;;;;;2.22;70.79;96804.16;5106274;28;20461;-57
2021/01/10 03:37:25;;;;;;;16.50;11.77;;;;;;;2.16;71.42;96801.44;5095243;28;20204;-58
2021/01/10 03:39:51;;;;;;;16.60;11.90;;;;;;;2.15;71.14;96804.97;5094802;28;20181;-56
2021/01/10 03:42:16;;;;;;;16.23;11.73;;;;;;;2.13;70.65;96807.75;5091520;28;20178;-58
2021/01/10 03:44:42;;;;;;;16.57;11.83;;;;;;;2.03;71.54;96805.31;5112815;28;20174;-57
2021/01/10 03:47:07;;;;;;;15.50;11.33;;;;;;;2.08;71.60;96805.63;5114402;28;20168;-57
2021/01/10 03:49:32;;;;;;;13.47;10.63;;;;;;;2.10;71.32;96800.31;5114341;28;20714;-57
2021/01/10 03:51:58;;;;;;;15.30;10.67;;;;;;;2.07;71.92;96808.38;5114453;28;20200;-58
2021/01/10 03:54:23;;;;;;;16.40;11.17;;;;;;;2.15;70.66;96810.16;5114236;28;20177;-56
2021/01/10 03:56:49;;;;;;;15.70;11.70;;;;;;;2.18;70.86;96808.06;5103961;28;20242;-58
2021/01/10 03:59:14;;;;;;;15.53;12.30;;;;;;;2.14;71.08;96804.16;5097941;28;20584;-57
2021/01/10 04:01:40;;;;;;;18.00;12.40;;;;;;;2.18;71.12;96812.41;5114086;28;20169;-58
2021/01/10 04:04:05;;;;;;;15.17;11.77;;;;;;;2.21;71.58;96809.53;5114447;28;20193;-58
2021/01/10 04:06:31;;;;;;;17.40;11.80;;;;;;;2.23;71.50;96810.19;5113986;28;20562;-58
2021/01/10 04:08:57;;;;;;;18.63;12.53;;;;;;;2.21;71.72;96814.72;5114050;28;20177;-56
2021/01/10 04:11:22;;;;;;;16.43;12.00;;;;;;;2.27;71.77;96808.84;5108008;28;20704;-57
2021/01/10 04:13:48;;;;;;;16.10;11.70;;;;;;;2.20;71.67;96813.88;5093977;28;20227;-58
2021/01/10 04:16:14;;;;;;;17.00;12.70;;;;;;;2.27;71.73;96820.03;5094828;28;20182;-58
2021/01/10 04:18:39;;;;;;;15.97;12.47;;;;;;;2.25;71.92;96814.19;5093522;28;20440;-58
2021/01/10 04:21:05;;;;;;;14.13;11.00;;;;;;;2.22;72.01;96819.72;5105064;28;20203;-58
2021/01/10 04:23:30;;;;;;;12.77;10.23;;;;;;;2.24;71.68;96810.00;5093744;28;20200;-56
2021/01/10 04:25:56;;;;;;;14.40;10.50;;;;;;;2.20;71.33;96813.06;5110959;28;20200;-58
2021/01/10 04:28:21;;;;;;;14.93;11.47;;;;;;;2.12;72.17;96811.28;5102970;28;20177;-57
2021/01/10 04:30:47;;;;;;;15.80;11.20;;;;;;;1.99;72.12;96801.41;5097077;28;20210;-58
2021/01/10 04:33:12;;;;;;;15.67;11.10;;;;;;;2.12;71.49;96819.06;5093495;28;20555;-56
2021/01/10 04:35:37;;;;;;;15.07;11.30;;;;;;;2.07;71.90;96818.75;5098422;28;20252;-56
2021/01/10 04:38:03;;;;;;;14.00;11.00;;;;;;;2.08;72.02;96815.19;5103222;28;20540;-58
2021/01/10 04:40:29;;;;;;;15.83;11.13;;;;;;;1.87;73.07;96820.00;5098807;28;20193;-58
2021/01/10 04:42:55;;;;;;;12.70;10.10;;;;;;;1.70;74.78;96823.56;5114009;28;20161;-58
2021/01/10 04:45:21;;;;;;;16.20;10.50;;;;;;;1.99;73.00;96816.16;5113159;28;20635;-58
2021/01/10 04:47:46;;;;;;;14.20;11.30;;;;;;;2.02;73.51;96819.25;5113548;28;20403;-56
2021/01/10 04:50:12;;;;;;;14.20;11.20;;;;;;;2.02;73.28;96813.25;5113122;28;20929;-57
2021/01/10 04:52:41;;;;;;;15.30;10.70;;;;;;;2.04;72.91;96819.06;5107506;28;20235;-58
2021/01/10 04:55:07;;;;;;;14.27;10.33;;;;;;;2.08;72.86;96818.56;5106548;28;20921;-58
2021/01/10 04:57:34;;;;;;;14.03;9.93;;;;;;;2.08;72.67;96815.19;5113417;28;20410;-56
2021/01/10 05:00:00;;;;;;;13.13;10.07;;;;;;;2.11;72.31;96812.28;5107001;28;20433;-56
2021/01/10 05:02:30;;;;;;;10.80;8.70;;;;;;;2.17;72.13;96810.81;5106919;28;20773;-57
2021/01/10 05:04:56;;;;;;;13.17;9.53;;;;;;;2.26;71.99;96815.03;5114340;28;20400;-57
2021/01/10 05:07:21;;;;;;;11.37;8.57;;;;;;;2.28;71.92;96815.66;5095853;28;20427;-57
2021/01/10 05:09:47;;;;;;;12.70;9.70;;;;;;;2.34;71.21;96817.63;5096766;28;20203;-57
2021/01/10 05:12:13;;;;;;;10.70;9.00;;;;;;;2.33;70.83;96811.63;5111087;28;20182;-56
2021/01/10 05:14:39;;;;;;;10.70;8.50;;;;;;;2.38;70.51;96816.28;5110666;28;20266;-56
2021/01/10 05:17:04;;;;;;;11.13;9.10;;;;;;;2.32;70.74;96817.75;5092755;28;20502;-57
2021/01/10 05:19:30;;;;;;;12.60;8.77;;;;;;;2.40;70.50;96816.94;5092894;28;20206;-56
2021/01/10 05:21:56;;;;;;;10.20;8.77;;;;;;;2.38;70.17;96814.53;5109470;28;20179;-58
2021/01/10 05:24:21;;;;;;;11.53;9.07;;;;;;;2.40;70.10;96810.00;5109294;28;20534;-58
2021/01/10 05:26:47;;;;;;;14.47;10.00;;;;;;;2.37;69.92;96825.88;5092672;28;20195;-57
2021/01/10 05:29:13;;;;;;;11.03;8.40;;;;;;;2.39;70.69;96821.31;5100368;28;20577;-56
2021/01/10 05:31:43;;;;;;;10.77;8.70;;;;;;;2.48;69.75;96820.31;5113930;28;20231;-57
2021/01/10 05:34:13;;;;;;;10.70;8.60;;;;;;;2.51;69.81;96819.22;5113356;28;20916;-57
2021/01/10 05:36:39;;;;;;;10.67;8.57;;;;;;;2.60;69.53;96818.22;5113010;28;20396;-56
2021/01/10 05:39:21;;;;;;;10.17;7.90;;;;;;;2.59;69.46;96820.00;5108584;28;20417;-57
2021/01/10 05:42:04;;;;;;;11.83;8.07;;;;;;;2.63;68.94;96817.88;5105170;28;20419;-57
2021/01/10 05:44:46;;;;;;;13.07;9.10;;;;;;;2.64;68.85;96822.94;5112885;28;20882;-56
2021/01/10 05:47:13;;;;;;;10.60;8.90;;;;;;;2.69;68.46;96819.81;5112921;28;20454;-56
2021/01/10 05:49:48;;;;;;;12.13;9.03;;;;;;;2.64;68.70;96822.09;5112951;28;20804;-57
2021/01/10 05:52:15;;;;;;;12.53;9.27;;;;;;;2.64;68.80;96822.09;5105935;28;20455;-58
2021/01/10 05:54:45;;;;;;;15.90;10.17;;;;;;;2.55;68.90;96826.50;5099128;28;20413;-56
2021/01/10 05:57:24;;;;;;;12.60;9.67;;;;;;;2.62;69.13;96831.84;5109482;28;20419;-57
2021/01/10 05:59:51;;;;;;;13.90;10.67;;;;;;;2.60;69.45;96831.19;5117009;28;20448;-57
2021/01/10 06:02:34;;;;;;;12.40;9.30;;;;;;;2.53;70.15;96828.44;5116582;28;20415;-56
2021/01/10 06:05:17;;;;;;;11.80;9.80;;;;;;;2.45;70.54;96833.63;5115347;28;20443;-57
2021/01/10 06:07:44;;;;;;;12.50;9.77;;;;;;;2.50;69.92;96830.56;5115082;28;20464;-58
2021/01/10 06:10:11;;;;;;;11.10;9.00;;;;;;;2.44;70.48;96832.03;5114872;28;20519;-56
2021/01/10 06:12:37;;;;;;;11.07;9.50;;;;;;;2.54;70.76;96842.19;5116493;28;20487;-56
2021/01/10 06:15:10;;;;;;;10.47;8.73;;;;;;;2.42;70.37;96835.75;5111343;28;20472;-58
2021/01/10 06:17:54;;;;;;;11.27;9.00;;;;;;;2.50;70.26;96835.75;5116120;28;20753;-56
2021/01/10 06:20:25;;;;;;;14.50;10.50;;;;;;;2.52;70.50;96846.78;5096257;28;20719;-58
2021/01/10 06:22:53;;;;;;;16.60;10.97;;;;;;;2.47;70.85;96836.06;5108410;28;20739;-56
2021/01/10 06:25:27;;;;;;;12.60;9.80;;;;;;;2.37;71.08;96832.84;5096243;28;20458;-58
2021/01/10 06:28:19;;;;;;;11.90;9.77;;;;;;;2.43;71.00;96837.38;5097912;28;20454;-57
2021/01/10 06:30:54;;;;;;;10.73;8.63;;;;;;;2.39;70.78;96834.28;5115961;28;20923;-58
2021/01/10 06:33:30;;;;;;;12.50;9.30;;;;;;;2.39;71.28;96838.66;5114507;28;20546;-56
2021/01/10 06:36:02;;;;;;;11.77;9.17;;;;;;;2.44;70.74;96833.81;5116115;28;20757;-57
2021/01/10 06:38:36;;;;;;;10.20;8.27;;;;;;;2.49;70.52;96826.34;5100423;28;20904;-57
2021/01/10 06:41:23;;;;;;;11.30;8.10;;;;;;;2.52;70.39;96832.00;5116005;28;20425;-58
2021/01/10 06:43:55;;;;;;;9.53;7.40;;;;;;;2.53;70.04;96822.44;5111523;28;20420;-58
2021/01/10 06:46:21;;;;;;;9.10;7.50;;;;;;;2.49;69.14;96818.56;5107744;28;20795;-57
2021/01/10 06:48:47;;;;;;;9.30;7.77;;;;;;;2.43;68.15;96817.44;5115957;28;20407;-57
2021/01/10 06:51:14;;;;;;;8.60;7.37;;;;;;;2.46;68.73;96821.50;5112411;28;20428;-58
2021/01/10 06:53:40;;;;;;;9.60;6.57;;;;;;;2.51;68.33;96814.03;5103495;28;20549;-56
2021/01/10 06:56:06;;;;;;;9.60;6.40;;;;;;;2.58;67.42;96813.19;5115765;28;20396;-57
2021/01/10 06:58:31;;;;;;;9.00;6.07;;;;;;;2.57;67.96;96810.78;5113091;28;20424;-57
2021/01/10 07:00:58;;;;;;;7.07;5.87;;;;;;;2.64;67.19;96814.31;5096189;28;20476;-58
2021/01/10 07:03:25;;;;;;;6.93;5.47;;;;;;;2.62;66.73;96811.91;5095020;28;20159;-57
2021/01/10 07:06:05;;;;;;;7.30;6.60;;;;;;;2.65;66.59;96815.94;5095762;28;20402;-58
2021/01/10 07:08:44;;;;;;;6.80;5.60;;;;;;;2.60;66.90;96819.03;5102432;28;20420;-56
2021/01/10 07:11:21;;;;;;;6.10;5.43;;;;;;;2.65;66.37;96821.13;5115190;28;20559;-58
2021/01/10 07:14:10;;;;;;;6.80;6.03;;;;;;;2.46;66.40;96824.91;5113439;28;20434;-57
2021/01/10 07:16:38;;;;;;;8.50;7.00;;;;;;;2.60;66.12;96833.78;5105486;28;21281;-57
2021/01/10 07:19:08;;;;;;;9.17;8.00;;;;;;;2.33;67.88;96837.53;5115481;28;20400;-56
2021/01/10 07:21:37;;;;;;;9.23;8.00;;;;;;;2.37;68.45;96838.03;5113720;28;20427;-58
2021/01/10 07:24:26;;;;;;;10.70;8.20;;;;;;;2.46;67.99;96837.03;5115336;28;20910;-58
2021/01/10 07:26:55;;;;;;;9.30;8.33;;;;;;;2.44;68.46;96831.22;5114656;28;20419;-57
2021/01/10 07:29:35;;;;;;;12.50;8.90;;;;;;;2.52;68.68;96832.00;5098720;28;20503;-57
2021/01/10 07:32:06;;;;;;;12.03;9.00;;;;;;;2.51;68.02;96830.41;5094660;28;20437;-56
2021/01/10 07:34:36;;;;;;;10.87;9.00;;;;;;;2.62;68.11;96834.44;5094793;28;20401;-57
2021/01/10 07:37:04;;;;;;;10.67;8.97;;;;;;;2.62;68.46;96832.66;5094173;28;20397;-58
2021/01/10 07:39:31;;;;;;;11.43;8.37;;;;;;;2.60;68.39;96832.00;5095448;28;20437;-57
2021/01/10 07:42:09;;;;;;;10.97;8.90;;;;;;;2.34;70.14;96838.34;5101810;28;20528;-57
2021/01/10 07:44:54;;;;;;;12.30;10.47;;;;;;;2.46;69.85;96839.63;5098585;28;20446;-58
2021/01/10 07:47:31;;;;;;;15.00;9.50;;;;;;;2.57;69.78;96841.91;5096388;28;20502;-57
2021/01/10 07:50:05;;;;;;;11.00;9.10;;;;;;;2.55;69.71;96842.06;5092962;28;20436;-57
2021/01/10 07:52:44;;;;;;;13.50;9.73;;;;;;;2.61;69.48;96841.38;5105432;28;20455;-58
2021/01/10 07:55:18;;;;;;;13.73;10.70;;;;;;;2.64;69.71;96841.09;5094395;28;20956;-58
2021/01/10 07:57:45;;;;;;;13.80;10.20;;;;;;;2.69;69.36;96843.97;5095166;28;20412;-58
2021/01/10 08:00:13;;;;;;;13.10;10.17;;;;;;;2.72;69.47;96842.81;5094019;28;20790;-57
2021/01/10 08:03:01;;;;;;;12.37;10.07;;;;;;;2.70;69.76;96852.59;5114271;28;20498;-58
2021/01/10 08:05:31;;;;;;;14.97;10.10;;;;;;;2.66;69.60;96856.47;5114532;28;20808;-57
2021/01/10 08:07:59;;;;;;;12.50;9.70;;;;;;;2.72;69.50;96856.59;5113891;28;20408;-58
2021/01/10 08:10:28;;;;;;;15.03;10.97;;;;;;;2.72;69.63;96869.59;5111220;28;20524;-61
2021/01/10 08:12:53;;;;;;;16.77;10.30;;;;;;;2.52;70.10;96864.91;5094024;28;20488;-56
2021/01/10 08:15:19;;;;;;;13.50;10.47;;;;;;;2.62;70.11;96856.00;5103377;28;20420;-56
2021/01/10 08:17:45;;;;;;;12.93;10.10;;;;;;;2.59;70.30;96861.47;5112072;28;20184;-56
2021/01/10 08:20:12;;;;;;;14.10;10.70;;;;;;;2.62;70.65;96858.59;5095509;28;20220;-57
2021/01/10 08:22:39;;;;;;;13.83;10.07;;;;;;;2.43;70.95;96853.72;5093470;28;20405;-57
2021/01/10 08:25:07;;;;;;;11.97;9.83;;;;;;;2.55;70.70;96844.66;5094550;28;20828;-56
2021/01/10 08:27:33;;;;;;;11.67;9.80;;;;;;;2.55;70.35;96859.41;5093322;28;20412;-56
2021/01/10 08:29:59;;;;;;;12.10;9.60;;;;;;;2.65;70.86;96855.66;5106056;28;20447;-57
2021/01/10 08:32:24;;;;;;;14.77;10.50;;;;;;;2.78;70.33;96861.16;5110887;28;20523;-56
2021/01/10 08:34:52;;;;;;;17.27;11.20;;;;;;;2.82;70.24;96853.84;5113942;28;20235;-56
2021/01/10 08:37:23;;;;;;;12.10;10.60;;;;;;;2.82;70.32;96862.44;5113587;28;20403;-57
2021/01/10 08:40:15;;;;;;;14.77;10.37;;;;;;;2.63;70.25;96862.78;5112079;28;20435;-57
2021/01/10 08:42:41;;;;;;;11.70;9.73;;;;;;;2.82;70.32;96866.81;5111734;28;20907;-56
2021/01/10 08:45:19;;;;;;;13.00;10.00;;;;;;;2.71;70.60;96867.16;5113050;28;20416;-56
2021/01/10 08:47:46;;;;;;;10.10;8.93;;;;;;;2.74;70.49;96864.22;5093132;28;20410;-56
2021/01/10 08:50:12;;;;;;;12.00;9.00;;;;;;;2.78;69.73;96866.34;5093299;28;20465;-57
2021/01/10 08:52:55;;;;;;;13.23;9.77;;;;;;;2.86;70.13;96860.34;5094218;28;20963;-57
2021/01/10 08:55:41;;;;;;;12.97;9.53;;;;;;;2.88;69.46;96869.53;5093294;28;20413;-57
2021/01/10 08:58:08;;;;;;;10.30;8.73;;;;;;;2.87;69.41;96860.16;5103775;28;20422;-56
2021/01/10 09:00:42;;;;;;;14.40;9.63;;;;;;;2.89;69.70;96862.59;5107662;28;20494;-56
2021/01/10 09:03:19;;;;;;;12.23;8.83;;;;;;;3.06;68.86;96859.00;5092154;28;20412;-56
2021/01/10 09:05:47;;;;;;;12.50;9.53;;;;;;;3.19;68.95;96855.88;5093344;28;20465;-57
2021/01/10 09:08:21;;;;;;;13.00;9.47;;;;;;;3.08;69.09;96855.22;5093850;28;20419;-56
2021/01/10 09:10:54;;;;;;;10.60;8.47;;;;;;;3.25;68.55;96858.59;5093095;28;20437;-56
2021/01/10 09:13:23;;;;;;;11.17;8.50;;;;;;;3.29;67.63;96865.06;5093645;28;20488;-56
2021/01/10 09:15:54;;;;;;;11.90;9.20;;;;;;;3.31;67.63;96864.91;5102559;28;20428;-57
2021/01/10 09:18:20;;;;;;;13.30;9.57;;;;;;;3.28;67.44;96860.06;5098579;28;20422;-57
2021/01/10 09:20:59;;;;;;;12.27;9.57;;;;;;;3.36;67.32;96865.19;5094109;28;20438;-56
2021/01/10 09:23:25;;;;;;;12.97;9.33;;;;;;;3.53;67.21;96867.56;5093335;28;20426;-56
2021/01/10 09:25:50;;;;;;;14.00;10.57;;;;;;;3.65;66.62;96866.22;5095431;28;20411;-56
2021/01/10 09:28:18;;;;;;;12.70;8.20;;;;;;;3.71;66.09;96870.75;5096847;28;20413;-57
2021/01/10 09:30:49;;;;;;;11.40;9.90;;;;;;;3.69;65.96;96867.50;5103368;28;20214;-56
2021/01/10 09:33:21;;;;;;;9.63;8.50;;;;;;;3.59;66.05;96866.88;5117426;28;20446;-57
2021/01/10 09:35:47;;;;;;;13.20;10.10;;;;;;;3.82;65.83;96872.13;5115698;28;20428;-58
2021/01/10 09:38:18;;;;;;;10.07;8.60;;;;;;;3.92;65.21;96870.13;5116853;28;20403;-57
2021/01/10 09:41:03;;;;;;;11.47;8.97;;;;;;;3.92;65.49;96872.72;5117230;28;20920;-57
2021/01/10 09:43:51;;;;;;;11.33;8.67;;;;;;;4.13;64.86;96870.31;5115274;28;20908;-56
2021/01/10 09:46:36;;;;;;;10.60;8.30;;;;;;;4.03;64.51;96869.72;5103790;28;20475;-56
2021/01/10 09:49:16;;;;;;;12.00;8.50;;;;;;;3.91;64.40;96866.69;5097717;28;20424;-56
2021/01/10 09:51:55;;;;;;;9.57;8.47;;;;;;;4.05;64.63;96865.16;5113405;28;20476;-57
2021/01/10 09:54:22;;;;;;;8.60;7.70;;;;;;;4.37;63.80;96864.09;5117048;28;20408;-57
2021/01/10 09:56:52;;;;;;;9.43;8.23;;;;;;;4.65;62.01;96859.97;5116443;28;20407;-57
2021/01/10 09:59:42;;;;;;;9.97;7.97;;;;;;;4.83;61.10;96857.88;5116986;28;20886;-57
2021/01/10 10:02:07;;;;;;;9.57;7.87;;;;;;;5.34;59.99;96856.19;5116868;28;20388;-56
2021/01/10 10:04:33;;;;;;;9.50;8.50;;;;;;;5.83;58.64;96860.66;5113873;28;20423;-57
2021/01/10 10:06:58;;;;;;;7.90;7.10;;;;;;;6.48;56.27;96847.44;5115379;28;20169;-57
2021/01/10 10:09:43;;;;;;;9.50;7.30;;;;;;;6.47;55.65;96847.63;5096409;28;20185;-57
2021/01/10 10:12:09;;;;;;;8.13;7.30;;;;;;;6.20;55.23;96847.38;5096407;28;20200;-57
2021/01/10 10:14:34;;;;;;;9.67;8.20;;;;;;;5.76;55.85;96835.47;5096196;28;20415;-57
2021/01/10 10:17:00;;;;;;;8.00;6.90;;;;;;;5.63;56.51;96851.75;5096794;28;20207;-57
2021/01/10 10:19:25;;;;;;;7.77;6.97;;;;;;;5.37;57.24;96855.81;5096136;28;20567;-57
2021/01/10 10:21:51;;;;;;;8.80;7.23;;;;;;;5.33;57.68;96860.56;5113861;28;20541;-57
2021/01/10 10:24:16;;;;;;;7.30;6.53;;;;;;;5.23;56.67;96858.25;5114431;28;20169;-56
2021/01/10 10:26:42;;;;;;;7.80;6.90;;;;;;;5.13;56.71;96847.28;5110738;28;20176;-61
2021/01/10 10:29:08;;;;;;;7.83;6.30;;;;;;;4.97;57.45;96847.47;5112687;28;20184;-60
2021/01/10 10:31:33;;;;;;;7.60;6.73;;;;;;;4.40;60.63;96840.38;5100399;28;20439;-61
2021/01/10 10:33:58;;;;;;;8.33;7.50;;;;;;;4.47;59.86;96836.91;5102867;28;20193;-66
2021/01/10 10:36:24;;;;;;;7.10;6.40;;;;;;;4.56;59.48;96846.25;5102678;28;20191;-65
2021/01/10 10:38:49;;;;;;;8.30;6.43;;;;;;;4.61;59.39;96840.50;5106299;28;20185;-59
2021/01/10 10:41:15;;;;;;;8.47;7.07;;;;;;;4.29;60.97;96839.00;5112465;28;20197;-62
2021/01/10 10:43:40;;;;;;;9.10;7.20;;;;;;;4.57;60.95;96834.84;5109264;28;21969;-67
2021/01/10 10:46:05;;;;;;;6.97;6.00;;;;;;;4.76;59.11;96842.16;5111396;28;20189;-60
2021/01/10 10:48:32;;;;;;;9.83;6.23;;;;;;;4.76;59.40;96843.94;5112280;28;20171;-63
2021/01/10 10:50:57;;;;;;;7.37;6.20;;;;;;;4.73;58.40;96834.69;5100385;28;20694;-59
2021/01/10 10:53:23;;;;;;;6.80;6.20;;;;;;;4.72;58.89;96835.69;5096941;28;20457;-62
2021/01/10 10:55:50;;;;;;;7.50;6.67;;;;;;;4.83;58.28;96831.84;5100716;28;20703;-61
2021/01/10 10:58:15;;;;;;;7.70;6.73;;;;;;;4.97;59.28;96834.44;5094095;28;20580;-65
2021/01/10 11:00:40;;;;;;;7.83;7.00;;;;;;;4.93;57.96;96821.97;5102857;28;20463;-56
2021/01/10 11:03:06;;;;;;;7.93;6.80;;;;;;;4.88;59.15;96824.28;5101526;28;20175;-57
2021/01/10 11:05:31;;;;;;;9.13;7.17;;;;;;;4.95;58.82;96820.00;5095189;28;20220;-68
2021/01/10 11:07:57;;;;;;;7.70;6.23;;;;;;;4.91;58.11;96813.53;5092465;28;20191;-67
2021/01/10 11:10:22;;;;;;;6.90;6.10;;;;;;;4.85;59.48;96820.28;5092737;28;20198;-65
2021/01/10 11:12:47;;;;;;;8.70;6.83;;;;;;;4.91;58.78;96816.94;5100078;28;20197;-63
2021/01/10 11:15:13;;;;;;;7.40;6.60;;;;;;;4.76;58.86;96810.13;5102479;28;20177;-66
2021/01/10 11:17:38;;;;;;;8.10;7.30;;;;;;;4.85;58.74;96815.06;5091896;28;20776;-65
2021/01/10 11:20:05;;;;;;;9.23;7.80;;;;;;;4.74;60.47;96814.69;5110111;28;20197;-65
2021/01/10 11:22:35;;;;;;;8.53;7.50;;;;;;;5.07;58.81;96797.75;5112171;28;20608;-68
2021/01/10 11:25:01;;;;;;;9.53;7.60;;;;;;;5.27;58.00;96800.59;5097636;28;20469;-59
2021/01/10 11:27:27;;;;;;;10.37;8.53;;;;;;;5.50;58.01;96799.47;5103075;28;20419;-58
2021/01/10 11:29:52;;;;;;;9.67;7.80;;;;;;;5.77;57.07;96800.56;5095536;28;20458;-61
2021/01/10 11:32:18;;;;;;;10.87;7.97;;;;;;;5.85;57.34;96795.28;5094673;28;20296;-58
2021/01/10 11:34:43;;;;;;;8.60;7.70;;;;;;;5.67;57.13;96798.25;5093045;28;20550;-58
2021/01/10 11:37:08;;;;;;;10.70;8.83;;;;;;;5.99;56.11;96794.41;5098902;28;20539;-56
2021/01/10 11:39:34;;;;;;;8.93;7.60;;;;;;;5.91;57.68;96787.50;5099525;28;20197;-62
2021/01/10 11:41:59;;;;;;;9.73;7.83;;;;;;;7.52;53.18;96787.19;5112987;28;20177;-60